Aegean Princess — ZDID9 — position and weather

sailwx.info

Track history (hours):
 
Tides and Currents Weather Stations Pressure Air Temp Water Temp Dewpoint Dewpoint Depression Visibility Wind Speed Wind Dir Waves Ship Positions

Aegean Princess

Last reported at 2015-Jan-29 06:22 UTC. Time now 2015-Jan-29 08:25 UTC.
Position N 36°09' W 005°22'.

Length 100 m; draft 7 m.

Type: Ship. MMSI: 236111476.

Date/timePositionNaut miles runAvg speedWind from/ knotsBaromVisibWave heightAir tempDewpointWater temp
2015-Jan-29 06:22N 36°09' W 005°22'0 0.0
2015-Jan-28 15:10N 36°09' W 005°22'0 0.0
2015-Jan-28 00:22N 36°09' W 005°22'2 1.9
2015-Jan-27 23:30N 36°08' W 005°22'0 0.0
2015-Jan-27 22:18N 36°08' W 005°22'0 0.1
2015-Jan-27 21:30N 36°08' W 005°22'0 0.0
2015-Jan-27 19:29N 36°08' W 005°22'0 0.0
2015-Jan-27 17:23N 36°08' W 005°22'0 0.2
2015-Jan-27 16:31N 36°07' W 005°22'2 2.4
2015-Jan-27 15:33N 36°07' W 005°19'1 0.4
2015-Jan-27 14:04N 36°07' W 005°19'0 0.1
2015-Jan-27 13:22N 36°07' W 005°19'0 0.0
2015-Jan-27 12:28N 36°07' W 005°19'0 0.0
2015-Jan-27 11:28N 36°07' W 005°19'0 0.0
2015-Jan-27 10:28N 36°07' W 005°19'0 0.0
2015-Jan-27 09:31N 36°07' W 005°19'0 0.0
2015-Jan-27 08:28N 36°07' W 005°19'0 0.0
2015-Jan-27 07:31N 36°07' W 005°19'0 0.1
2015-Jan-27 06:28N 36°07' W 005°19'0 0.0
2015-Jan-27 05:28N 36°07' W 005°19'0 0.0
2015-Jan-27 04:28N 36°07' W 005°19'0 0.0
2015-Jan-27 03:31N 36°07' W 005°19'0 0.1
2015-Jan-27 02:31N 36°07' W 005°19'0 0.0
2015-Jan-27 01:34N 36°07' W 005°19'0 0.0
2015-Jan-27 00:27N 36°07' W 005°19'0 0.0
2015-Jan-26 23:27N 36°07' W 005°19'0 0.1
2015-Jan-26 22:33N 36°07' W 005°19'0 0.0
2015-Jan-26 21:33N 36°07' W 005°19'0 0.0
2015-Jan-26 20:33N 36°07' W 005°19'0 0.0
2015-Jan-26 19:27N 36°07' W 005°19'0 0.0
2015-Jan-26 18:21N 36°07' W 005°19'0 0.0
2015-Jan-26 17:33N 36°07' W 005°19'0 0.0
2015-Jan-26 16:33N 36°07' W 005°19'0 0.0
2015-Jan-26 15:33N 36°07' W 005°19'0 0.0
2015-Jan-26 14:33N 36°07' W 005°19'0 0.0
2015-Jan-26 13:33N 36°07' W 005°19'0 0.0
2015-Jan-26 12:33N 36°07' W 005°19'0 0.0
2015-Jan-26 11:24N 36°07' W 005°19'0 0.0
2015-Jan-26 10:33N 36°07' W 005°19'0 0.1
2015-Jan-26 09:09N 36°07' W 005°19'0 0.0
2015-Jan-26 08:33N 36°07' W 005°19'0 0.0
2015-Jan-26 07:33N 36°07' W 005°19'0 0.1
2015-Jan-26 06:33N 36°07' W 005°19'0 0.1
2015-Jan-26 05:30N 36°07' W 005°19'0 0.0
2015-Jan-26 04:30N 36°07' W 005°19'0 0.0
2015-Jan-26 03:33N 36°07' W 005°19'0 0.0
2015-Jan-26 02:27N 36°07' W 005°19'0 0.0
2015-Jan-26 01:33N 36°07' W 005°19'0 0.0
2015-Jan-26 00:33N 36°07' W 005°19'0 0.0
2015-Jan-25 23:30N 36°07' W 005°19'3 2.8
2015-Jan-25 22:33N 36°06' W 005°21'1 1.2
2015-Jan-25 21:33N 36°07' W 005°21'0 0.1
2015-Jan-25 20:27N 36°07' W 005°21'0 0.1
2015-Jan-25 19:30N 36°07' W 005°21'0 0.1
2015-Jan-25 18:33N 36°07' W 005°21'0 0.0
2015-Jan-25 17:33N 36°07' W 005°21'0 0.1
2015-Jan-25 16:30N 36°07' W 005°21'0 0.0
2015-Jan-25 15:33N 36°07' W 005°21'0 0.0
2015-Jan-25 14:33N 36°07' W 005°21'0 0.0
2015-Jan-25 13:30N 36°07' W 005°21'0 0.0
2015-Jan-25 12:33N 36°07' W 005°21'0 0.1
2015-Jan-25 11:27N 36°07' W 005°21'2 1.8
2015-Jan-25 10:23N 36°09' W 005°23'0 0.1
2015-Jan-25 09:17N 36°09' W 005°23'0 0.0
2015-Jan-25 07:28N 36°09' W 005°23'0 0.5
2015-Jan-25 06:32N 36°08' W 005°22'3 2.9
2015-Jan-25 05:29N 36°07' W 005°19'0 0.1
2015-Jan-25 04:32N 36°07' W 005°19'0 0.0
2015-Jan-25 03:26N 36°07' W 005°19'0 0.0
2015-Jan-25 02:29N 36°07' W 005°19'0 0.0
2015-Jan-25 01:32N 36°07' W 005°19'0 0.0
2015-Jan-25 00:29N 36°07' W 005°19'0 0.0
2015-Jan-24 23:31N 36°07' W 005°19'6 6.6
2015-Jan-24 22:33N 36°01' W 005°21'9 0.8
2015-Jan-24 11:22N 35°57' W 005°30'5 6.5
2015-Jan-24 10:33N 35°60' W 005°25'5 5.4
2015-Jan-24 09:33N 36°04' W 005°20'4 3.0
2015-Jan-24 08:16N 36°07' W 005°19'0 0.1
2015-Jan-24 07:31N 36°07' W 005°19'0 0.0
2015-Jan-24 06:33N 36°07' W 005°19'0 0.0
2015-Jan-24 05:33N 36°07' W 005°19'0 0.1
2015-Jan-24 04:24N 36°07' W 005°19'0 0.0
2015-Jan-24 03:33N 36°07' W 005°19'0 0.0
2015-Jan-24 02:33N 36°07' W 005°19'0 0.0
2015-Jan-24 01:33N 36°07' W 005°19'3 3.1
2015-Jan-24 00:33N 36°07' W 005°22'2 1.8
2015-Jan-23 23:31N 36°08' W 005°22'0 0.0
2015-Jan-23 22:34N 36°08' W 005°22'0 0.0
2015-Jan-23 21:03N 36°08' W 005°22'0 0.1
2015-Jan-23 20:18N 36°08' W 005°22'0 0.1
2015-Jan-23 19:26N 36°08' W 005°22'2 0.6
2015-Jan-23 16:29N 36°07' W 005°21'0 0.1
2015-Jan-23 15:29N 36°07' W 005°21'0 0.1
2015-Jan-23 14:29N 36°07' W 005°21'0 0.0
2015-Jan-23 13:29N 36°07' W 005°21'0 0.0
2015-Jan-23 12:14N 36°07' W 005°21'0 0.0
2015-Jan-23 10:31N 36°07' W 005°21'3 0.7
2015-Jan-23 06:17N 36°09' W 005°22'0 0.0
2015-Jan-23 05:32N 36°09' W 005°22'0 0.0
2015-Jan-23 02:32N 36°09' W 005°22'0 0.0
2015-Jan-23 01:08N 36°09' W 005°22'0 0.0
2015-Jan-23 00:14N 36°09' W 005°22'0 0.0
2015-Jan-22 21:31N 36°09' W 005°22'0 0.0
2015-Jan-22 18:25N 36°09' W 005°23'0 0.1
2015-Jan-22 17:07N 36°09' W 005°22'0 0.0
2015-Jan-22 15:31N 36°09' W 005°22'0 0.0
2015-Jan-22 14:31N 36°09' W 005°22'0 0.0
2015-Jan-22 13:13N 36°09' W 005°22'0 0.0
2015-Jan-22 12:31N 36°09' W 005°22'0 0.0
2015-Jan-22 11:31N 36°09' W 005°22'0 0.0
2015-Jan-22 10:25N 36°09' W 005°22'0 0.0
2015-Jan-22 09:31N 36°09' W 005°22'0 0.0
2015-Jan-22 08:31N 36°09' W 005°22'0 0.0
2015-Jan-21 23:28N 36°09' W 005°22'0 0.0
2015-Jan-21 12:18N 36°09' W 005°22'0 0.0
2015-Jan-21 10:33N 36°09' W 005°22'0 0.0
2015-Jan-21 05:30N 36°09' W 005°22'0 0.0
2015-Jan-21 04:30N 36°09' W 005°22'0 0.0
2015-Jan-21 03:06N 36°09' W 005°22'0 0.0
2015-Jan-21 01:30N 36°09' W 005°22'0 0.0
2015-Jan-21 00:24N 36°09' W 005°22'0 0.0
2015-Jan-20 23:21N 36°09' W 005°22'0 0.0
2015-Jan-20 22:18N 36°09' W 005°22'0 0.0
2015-Jan-20 21:30N 36°09' W 005°22'0 0.0
2015-Jan-20 20:30N 36°09' W 005°22'0 0.0
2015-Jan-20 19:30N 36°09' W 005°22'0 0.0
2015-Jan-20 18:12N 36°09' W 005°22'0 0.0
2015-Jan-20 17:30N 36°09' W 005°22'0 0.1
2015-Jan-20 16:18N 36°09' W 005°22'0 0.1
2015-Jan-20 15:31N 36°09' W 005°23'6 6.3
2015-Jan-20 14:33N 36°03' W 005°21'  
Track history (hours):
 
Tides and Currents Weather Stations Pressure Air Temp Water Temp Dewpoint Dewpoint Depression Visibility Wind Speed Wind Dir Waves Ship Positions

Aegean Princess

Last reported at 2015-Jan-29 06:22 UTC. Time now 2015-Jan-29 08:25 UTC.
Position N 36°09' W 005°22'.

Length 100 m; draft 7 m.

Type: Ship. MMSI: 236111476.

Date/timePositionNaut miles runAvg speedWind from/ knotsBaromVisibWave heightAir tempDewpointWater temp
2015-Jan-29 06:22N 36°09' W 005°22'0 0.0
2015-Jan-28 15:10N 36°09' W 005°22'0 0.0
2015-Jan-28 00:22N 36°09' W 005°22'2 1.9
2015-Jan-27 23:30N 36°08' W 005°22'0 0.0
2015-Jan-27 22:18N 36°08' W 005°22'0 0.1
2015-Jan-27 21:30N 36°08' W 005°22'0 0.0
2015-Jan-27 19:29N 36°08' W 005°22'0 0.0
2015-Jan-27 17:23N 36°08' W 005°22'0 0.2
2015-Jan-27 16:31N 36°07' W 005°22'2 2.4
2015-Jan-27 15:33N 36°07' W 005°19'1 0.4
2015-Jan-27 14:04N 36°07' W 005°19'0 0.1
2015-Jan-27 13:22N 36°07' W 005°19'0 0.0
2015-Jan-27 12:28N 36°07' W 005°19'0 0.0
2015-Jan-27 11:28N 36°07' W 005°19'0 0.0
2015-Jan-27 10:28N 36°07' W 005°19'0 0.0
2015-Jan-27 09:31N 36°07' W 005°19'0 0.0
2015-Jan-27 08:28N 36°07' W 005°19'0 0.0
2015-Jan-27 07:31N 36°07' W 005°19'0 0.1
2015-Jan-27 06:28N 36°07' W 005°19'0 0.0
2015-Jan-27 05:28N 36°07' W 005°19'0 0.0
2015-Jan-27 04:28N 36°07' W 005°19'0 0.0
2015-Jan-27 03:31N 36°07' W 005°19'0 0.1
2015-Jan-27 02:31N 36°07' W 005°19'0 0.0
2015-Jan-27 01:34N 36°07' W 005°19'0 0.0
2015-Jan-27 00:27N 36°07' W 005°19'0 0.0
2015-Jan-26 23:27N 36°07' W 005°19'0 0.1
2015-Jan-26 22:33N 36°07' W 005°19'0 0.0
2015-Jan-26 21:33N 36°07' W 005°19'0 0.0
2015-Jan-26 20:33N 36°07' W 005°19'0 0.0
2015-Jan-26 19:27N 36°07' W 005°19'0 0.0
2015-Jan-26 18:21N 36°07' W 005°19'0 0.0
2015-Jan-26 17:33N 36°07' W 005°19'0 0.0
2015-Jan-26 16:33N 36°07' W 005°19'0 0.0
2015-Jan-26 15:33N 36°07' W 005°19'0 0.0
2015-Jan-26 14:33N 36°07' W 005°19'0 0.0
2015-Jan-26 13:33N 36°07' W 005°19'0 0.0
2015-Jan-26 12:33N 36°07' W 005°19'0 0.0
2015-Jan-26 11:24N 36°07' W 005°19'0 0.0
2015-Jan-26 10:33N 36°07' W 005°19'0 0.1
2015-Jan-26 09:09N 36°07' W 005°19'0 0.0
2015-Jan-26 08:33N 36°07' W 005°19'0 0.0
2015-Jan-26 07:33N 36°07' W 005°19'0 0.1
2015-Jan-26 06:33N 36°07' W 005°19'0 0.1
2015-Jan-26 05:30N 36°07' W 005°19'0 0.0
2015-Jan-26 04:30N 36°07' W 005°19'0 0.0
2015-Jan-26 03:33N 36°07' W 005°19'0 0.0
2015-Jan-26 02:27N 36°07' W 005°19'0 0.0
2015-Jan-26 01:33N 36°07' W 005°19'0 0.0
2015-Jan-26 00:33N 36°07' W 005°19'0 0.0
2015-Jan-25 23:30N 36°07' W 005°19'3 2.8
2015-Jan-25 22:33N 36°06' W 005°21'1 1.2
2015-Jan-25 21:33N 36°07' W 005°21'0 0.1
2015-Jan-25 20:27N 36°07' W 005°21'0 0.1
2015-Jan-25 19:30N 36°07' W 005°21'0 0.1
2015-Jan-25 18:33N 36°07' W 005°21'0 0.0
2015-Jan-25 17:33N 36°07' W 005°21'0 0.1
2015-Jan-25 16:30N 36°07' W 005°21'0 0.0
2015-Jan-25 15:33N 36°07' W 005°21'0 0.0
2015-Jan-25 14:33N 36°07' W 005°21'0 0.0
2015-Jan-25 13:30N 36°07' W 005°21'0 0.0
2015-Jan-25 12:33N 36°07' W 005°21'0 0.1
2015-Jan-25 11:27N 36°07' W 005°21'2 1.8
2015-Jan-25 10:23N 36°09' W 005°23'0 0.1
2015-Jan-25 09:17N 36°09' W 005°23'0 0.0
2015-Jan-25 07:28N 36°09' W 005°23'0 0.5
2015-Jan-25 06:32N 36°08' W 005°22'3 2.9
2015-Jan-25 05:29N 36°07' W 005°19'0 0.1
2015-Jan-25 04:32N 36°07' W 005°19'0 0.0
2015-Jan-25 03:26N 36°07' W 005°19'0 0.0
2015-Jan-25 02:29N 36°07' W 005°19'0 0.0
2015-Jan-25 01:32N 36°07' W 005°19'0 0.0
2015-Jan-25 00:29N 36°07' W 005°19'0 0.0
2015-Jan-24 23:31N 36°07' W 005°19'6 6.6
2015-Jan-24 22:33N 36°01' W 005°21'9 0.8
2015-Jan-24 11:22N 35°57' W 005°30'5 6.5
2015-Jan-24 10:33N 35°60' W 005°25'5 5.4
2015-Jan-24 09:33N 36°04' W 005°20'4 3.0
2015-Jan-24 08:16N 36°07' W 005°19'0 0.1
2015-Jan-24 07:31N 36°07' W 005°19'0 0.0
2015-Jan-24 06:33N 36°07' W 005°19'0 0.0
2015-Jan-24 05:33N 36°07' W 005°19'0 0.1
2015-Jan-24 04:24N 36°07' W 005°19'0 0.0
2015-Jan-24 03:33N 36°07' W 005°19'0 0.0
2015-Jan-24 02:33N 36°07' W 005°19'0 0.0
2015-Jan-24 01:33N 36°07' W 005°19'3 3.1
2015-Jan-24 00:33N 36°07' W 005°22'2 1.8
2015-Jan-23 23:31N 36°08' W 005°22'0 0.0
2015-Jan-23 22:34N 36°08' W 005°22'0 0.0
2015-Jan-23 21:03N 36°08' W 005°22'0 0.1
2015-Jan-23 20:18N 36°08' W 005°22'0 0.1
2015-Jan-23 19:26N 36°08' W 005°22'2 0.6
2015-Jan-23 16:29N 36°07' W 005°21'0 0.1
2015-Jan-23 15:29N 36°07' W 005°21'0 0.1
2015-Jan-23 14:29N 36°07' W 005°21'0 0.0
2015-Jan-23 13:29N 36°07' W 005°21'0 0.0
2015-Jan-23 12:14N 36°07' W 005°21'0 0.0
2015-Jan-23 10:31N 36°07' W 005°21'3 0.7
2015-Jan-23 06:17N 36°09' W 005°22'0 0.0
2015-Jan-23 05:32N 36°09' W 005°22'0 0.0
2015-Jan-23 02:32N 36°09' W 005°22'0 0.0
2015-Jan-23 01:08N 36°09' W 005°22'0 0.0
2015-Jan-23 00:14N 36°09' W 005°22'0 0.0
2015-Jan-22 21:31N 36°09' W 005°22'0 0.0
2015-Jan-22 18:25N 36°09' W 005°23'0 0.1
2015-Jan-22 17:07N 36°09' W 005°22'0 0.0
2015-Jan-22 15:31N 36°09' W 005°22'0 0.0
2015-Jan-22 14:31N 36°09' W 005°22'0 0.0
2015-Jan-22 13:13N 36°09' W 005°22'0 0.0
2015-Jan-22 12:31N 36°09' W 005°22'0 0.0
2015-Jan-22 11:31N 36°09' W 005°22'0 0.0
2015-Jan-22 10:25N 36°09' W 005°22'0 0.0
2015-Jan-22 09:31N 36°09' W 005°22'0 0.0
2015-Jan-22 08:31N 36°09' W 005°22'0 0.0
2015-Jan-21 23:28N 36°09' W 005°22'0 0.0
2015-Jan-21 12:18N 36°09' W 005°22'0 0.0
2015-Jan-21 10:33N 36°09' W 005°22'0 0.0
2015-Jan-21 05:30N 36°09' W 005°22'0 0.0
2015-Jan-21 04:30N 36°09' W 005°22'0 0.0
2015-Jan-21 03:06N 36°09' W 005°22'0 0.0
2015-Jan-21 01:30N 36°09' W 005°22'0 0.0
2015-Jan-21 00:24N 36°09' W 005°22'0 0.0
2015-Jan-20 23:21N 36°09' W 005°22'0 0.0
2015-Jan-20 22:18N 36°09' W 005°22'0 0.0
2015-Jan-20 21:30N 36°09' W 005°22'0 0.0
2015-Jan-20 20:30N 36°09' W 005°22'0 0.0
2015-Jan-20 19:30N 36°09' W 005°22'0 0.0
2015-Jan-20 18:12N 36°09' W 005°22'0 0.0
2015-Jan-20 17:30N 36°09' W 005°22'0 0.1
2015-Jan-20 16:18N 36°09' W 005°22'0 0.1
2015-Jan-20 15:31N 36°09' W 005°23'6 6.3
2015-Jan-20 14:33N 36°03' W 005°21'  

Dump ship's entire track history